Aérodrome :







RETROUVEZ-NOUS SUR...

 
LOGIN :

S'inscrire | Disclaimer

   EN    FR    IT 

 









Légende :    VFR   VFR Marginal   IFR   IFR Intensif   IFR Très Intensif
Visi : 
Plafond : 
>= 8 km
>= 3000ft
5 à 8 km
1000 à 3000 ft
1500m à 5 km
500 à 1000 ft
800 à 1500m
200 à 500 ft
< 800m
< 200 ft
Symboles :   Orages  Brouillard  Fortes neiges  Fortes précipitations  Vent > 20 kt






- Altitude de l'aérodrome : 1663 ft
- Code IATA : SLK


KSLK - Adirondack Regional

DERNIER METAR :
  • 180651Z AUTO 00000KT 10SM CLR M17/M19 A3026 RMK AO2 SLP283 T11671194

METARs EXPIRÉS :
  • 180551Z AUTO 02003KT 10SM CLR M18/M21 A3028 RMK AO2 SLP291 I6000 T11781206 11139 21206 58003
  • 180451Z AUTO 00000KT 10SM CLR M19/M22 A3029 RMK AO2 SLP295 T11891217 410281206
  • 180351Z AUTO 01003KT 10SM CLR M20/M23 A3029 RMK AO2 SLP296 T12001228

TAF KSLK
Valide du 18 à 06h jusqu'au 19 à 06h UTC


180533Z 1806/1906 VRB04KT P6SM BKN150
FM181100 16006KT P6SM VCSH OVC040
FM181400 16012KT 2SM -SN BR OVC030 WS020/18045KT
FM181500 16015G23KT 1 1/2SM -SN BR OVC025 WS020/18050KT
FM181800 18025G37KT 2SM -SN BR OVC030 WS020/19055KT
FM182200 20020G30KT 5SM -DZ VCSH OVC016 WS020/22050KT
FM190300 25017G26KT 5SM -FZDZ OVC020



MET'MAP, la Météo Aéronautique d'un coup d'oeil ! - Copyright ORBIFLY Décembre 2007 - Disclaimer

ORBIFLY MET'MAP TEAM :

Programmation & Développement : Alexandra Zaïnal
Sur une idée originale de : Baudouin d'Aumeries
Assistance à la programmation : Marc-Olivier Méhu
Soutien technique & logistique : Manuel Goepfert

Contact : metmap@orbifly.com




SOURCES & CREDITS :

   NOAA